Eagle River, Canada
Current Conditions -  °F | °C
As of 12:00 AM on Sunday 21 Dec 2014 (Local Time) from CYHD Reporting Station
Overcast Overcast  
Wind Chill: 19°   Ceiling: 900
Heat Index: 28°   Visibility: 7mi
Dew Point: 27°   Wind: 10mph
Humidity: 93%   Direction: 190°S
Pressure: 29.91"   Gusts: NA
Location:  49.78°N, 93.18°W
Report Text: CYHD 210600Z AUTO 19009KT 7SM OVC009 M02/M03 A2991 RMK SLP154
Loading
Personal Weather Stations






























Interactive Weather Map New forecast layout! Learn more

10-Day Weather Forecast

Advertisements
Track Severe Weather on mobile